Crew | Aerofun Virtual



 METAR AND TAF INFORMATION
METAR FOR EVRA
ADDS - METARS form results

(0322 UTC 23 September 2019)
Data provider http://aviationweather.gov/metar/data/
 
METAR text: EVRA 230320Z 00000KT 9999 MIFG NSC M02/M02 Q1023 NOSIG
Conditions at: EVRA (RIGA AIRPORT , LV) observed 0320 UTC 23 September 2019
Temperature: -2.0°C (28°F)
Dewpoint: -2.0°C (28°F) [RH = 100%]
Pressure (altimeter): 30.21 inches Hg (1023.0 mb)
Winds: calm
Visibility: 6 or more miles (10+ km)
Ceiling: at least 12,000 feet AGL
Clouds: sky clear below 12,000 feet AGL
Weather: MIFG  (shallow fog)

METAR text: EVRA 230250Z 20002KT 9999 4500 MIFG NSC M02/M02 Q1023 NOSIG
Conditions at: EVRA (RIGA AIRPORT , LV) observed 0250 UTC 23 September 2019
Temperature: -2.0°C (28°F)
Dewpoint: -2.0°C (28°F) [RH = 100%]
Pressure (altimeter): 30.21 inches Hg (1023.0 mb)
Winds: from the SSW (200 degrees) at 2 MPH (2 knots; 1.0 m/s)
Visibility: 6 or more miles (10+ km)
Ceiling: at least 12,000 feet AGL
Clouds: sky clear below 12,000 feet AGL
Weather: MIFG  (shallow fog)

Forecast for: EVRA (RIGA AIRPORT , LV)
Text: TAF EVRA 230201Z 2303/2403 VRB02KT 9999 SCT030
Forecast period: 0300 UTC 23 September 2019 to 0300 UTC 24 September 2019
Forecast type: FROM: standard forecast or significant change
Winds: variable direction winds at 2 MPH (2 knots; 1.0 m/s)
Visibility: 6 or more miles 10+ km)
Ceiling: at least 12,000 feet AGL
Clouds: scattered clouds at 3000 feet AGL
Weather: no significant weather forecast for this period
Text: TEMPO 2303/2306 0700 FZFG
Forecast period: 0300 to 0600 UTC 23 September 2019
Forecast type: TEMPORARY: The following changes expected for less than half the time period
Visibility: 0.43 miles (0.69 km)
Ceiling: unknown
Clouds: missing
Weather: FZFG  (freezing fog)
Text: TEMPO 2320/2403 1500 MIFG BR
Forecast period: 2000 UTC 23 September 2019 to 0300 UTC 24 September 2019
Forecast type: TEMPORARY: The following changes expected for less than half the time period
Visibility: 0.93 miles (1.50 km)
Ceiling: unknown
Clouds: missing
Weather: MIFG BR  (shallow fog, mist)

 AIRPORT MAP

 RUNWAY INFORMATION
Runway 18 Runway length 10499 ft Runway width 148 ft
Runway elevation 31 ft Runway displaced threshold 0 ft Runway heading 185
Runway 36 Runway length 10499 ft Runway width 148 ft
Runway elevation 34 ft Runway displaced threshold 0 ft Runway heading 5

 AIRPORT FREQUENCIES
Type APP Name APP Frequency 129.925 MHZ
Type ATIS Name ATIS Frequency 121.2 MHZ
Type GND Name Riga Groun Frequency 118.8 MHZ
Type MISC Name Riga Apron Frequency 131.6 MHZ
Type TWR Name TWR Frequency 118.1 MHZ

 AIRPORT NEAR NAVIGATION AIDS
Type VOR-DME Name Riga Frequency 112050 KHZ
Type VOR-DME Name Riga Frequency 113700 KHZ